Time;durP1;ratioP1;P1;durP2;ratioP2;P2;SDS_P1;SDS_P2;PMS_P1;PMS_P2;Temp;Humidity;BMP_temperature;BMP_pressure;BME280_temperature;BME280_humidity;BME280_pressure;Samples;Min_cycle;Max_cycle;Signal;HPM_P1;HPM_P2
2023/01/06 00:01:11;;;;;;;2.28;1.58;;;10.80;99.90;;;;;;4860301;29;20034;-77
2023/01/06 00:03:37;;;;;;;3.57;1.40;;;10.80;99.90;;;;;;4876266;29;20039;-77
2023/01/06 00:06:05;;;;;;;4.78;1.83;;;10.70;99.90;;;;;;4860493;29;20370;-77
2023/01/06 00:08:30;;;;;;;3.33;1.35;;;10.80;99.90;;;;;;4858641;29;20034;-77
2023/01/06 00:10:56;;;;;;;3.63;1.70;;;10.80;99.90;;;;;;4876706;29;20153;-77
2023/01/06 00:13:22;;;;;;;4.93;1.52;;;10.80;99.90;;;;;;4845280;29;20041;-77
2023/01/06 00:15:48;;;;;;;2.38;0.82;;;10.80;99.90;;;;;;4877733;29;20025;-77
2023/01/06 00:18:14;;;;;;;4.88;2.55;;;10.80;99.90;;;;;;4877973;29;20042;-77
2023/01/06 00:20:40;;;;;;;3.03;1.73;;;10.80;99.90;;;;;;4861834;29;20034;-77
2023/01/06 00:23:05;;;;;;;3.88;2.55;;;10.80;99.90;;;;;;4876551;29;20029;-77
2023/01/06 00:25:31;;;;;;;4.82;1.73;;;10.80;99.90;;;;;;4842492;29;20034;-77
2023/01/06 00:27:57;;;;;;;2.38;1.98;;;10.80;99.90;;;;;;4824889;29;20045;-77
2023/01/06 00:30:23;;;;;;;4.70;1.38;;;10.80;99.90;;;;;;4840446;29;20022;-77
2023/01/06 00:32:50;;;;;;;1.58;1.48;;;10.80;99.90;;;;;;4841371;29;20476;-77
2023/01/06 00:35:16;;;;;;;3.55;1.23;;;10.80;99.90;;;;;;4841293;29;20030;-77
2023/01/06 00:37:42;;;;;;;3.30;1.50;;;10.80;99.90;;;;;;4857782;29;20037;-77
2023/01/06 00:40:08;;;;;;;2.35;1.50;;;10.80;99.90;;;;;;4841644;29;20030;-77
2023/01/06 00:42:36;;;;;;;0.88;0.88;;;10.80;99.90;;;;;;4827202;29;20072;-77
2023/01/06 00:45:03;;;;;;;6.43;2.10;;;10.80;99.90;;;;;;4843621;29;20041;-77
2023/01/06 00:47:29;;;;;;;5.68;2.15;;;10.90;99.90;;;;;;4828390;29;20026;-77
2023/01/06 00:49:54;;;;;;;2.65;1.75;;;10.80;99.90;;;;;;4829312;29;20030;-77
2023/01/06 00:52:20;;;;;;;2.13;1.20;;;10.80;99.90;;;;;;4844123;29;20034;-77
2023/01/06 00:54:46;;;;;;;2.15;1.65;;;10.80;99.90;;;;;;4847330;29;20022;-77
2023/01/06 00:57:13;;;;;;;4.63;3.88;;;10.80;99.90;;;;;;4878727;29;20104;-77
2023/01/06 00:59:40;;;;;;;3.60;2.00;;;10.80;99.90;;;;;;4847085;29;20085;-77
2023/01/06 01:02:06;;;;;;;3.72;1.50;;;10.80;99.90;;;;;;4846745;29;20026;-77
2023/01/06 01:04:31;;;;;;;0.70;0.70;;;10.80;99.90;;;;;;4878088;29;20037;-77
2023/01/06 01:06:58;;;;;;;1.02;1.02;;;10.80;99.90;;;;;;4862100;29;20049;-77
2023/01/06 01:09:27;;;;;;;1.00;1.00;;;10.80;99.90;;;;;;4851633;29;20029;-77
2023/01/06 01:12:08;;;;;;;2.13;1.73;;;10.80;99.90;;;;;;4842295;29;20030;-77
2023/01/06 01:14:35;;;;;;;4.97;1.52;;;10.80;99.90;;;;;;4857146;29;20456;-77
2023/01/06 01:17:02;;;;;;;11.45;1.85;;;10.80;99.90;;;;;;4828193;29;20105;-77
2023/01/06 01:19:29;;;;;;;4.72;2.25;;;10.80;99.90;;;;;;4845464;29;20033;-77
2023/01/06 01:21:55;;;;;;;2.72;0.73;;;10.80;99.90;;;;;;4845628;29;20033;-77
2023/01/06 01:24:22;;;;;;;1.33;1.23;;;10.80;99.90;;;;;;4847244;29;20038;-78
2023/01/06 01:26:48;;;;;;;1.27;1.17;;;10.80;99.90;;;;;;4874249;29;20116;-77
2023/01/06 01:29:16;;;;;;;6.50;1.80;;;10.80;99.90;;;;;;4866759;29;20116;-77
2023/01/06 01:31:42;;;;;;;5.25;1.05;;;10.90;99.90;;;;;;4865475;29;20034;-77
2023/01/06 01:34:09;;;;;;;2.25;1.02;;;10.80;99.90;;;;;;4865139;29;20029;-77
2023/01/06 01:36:35;;;;;;;4.43;1.75;;;10.90;99.90;;;;;;4848972;29;20133;-77
2023/01/06 01:39:01;;;;;;;1.38;1.27;;;10.90;99.90;;;;;;4882470;29;20037;-77
2023/01/06 01:41:28;;;;;;;4.32;1.40;;;10.90;99.90;;;;;;4849898;29;20064;-77
2023/01/06 01:44:01;;;;;;;3.50;1.67;;;10.80;99.90;;;;;;4864635;29;20049;-77
2023/01/06 01:46:32;;;;;;;5.38;1.23;;;10.90;99.90;;;;;;4860717;29;20065;-77
2023/01/06 01:49:12;;;;;;;1.35;0.95;;;10.90;99.90;;;;;;4861026;29;20038;-77
2023/01/06 01:51:39;;;;;;;;;;;10.80;99.90;;;;;;4878684;29;20029;-77
2023/01/06 01:54:11;;;;;;;3.70;1.63;;;10.80;99.90;;;;;;4861830;29;20342;-77
2023/01/06 01:56:43;;;;;;;5.10;2.00;;;10.80;99.90;;;;;;4850562;29;20073;-77
2023/01/06 01:59:14;;;;;;;2.63;1.25;;;10.80;99.90;;;;;;4864905;29;20036;-77
2023/01/06 02:01:40;;;;;;;3.35;2.08;;;10.80;99.90;;;;;;4833668;29;20069;-77
2023/01/06 02:04:08;;;;;;;8.18;1.77;;;10.80;99.90;;;;;;4848375;29;20086;-77
2023/01/06 02:06:34;;;;;;;4.72;2.30;;;10.80;99.90;;;;;;4832791;29;20050;-77
2023/01/06 02:09:16;;;;;;;3.38;1.85;;;10.80;99.90;;;;;;4848473;29;20125;-77
2023/01/06 02:11:46;;;;;;;2.33;1.23;;;10.80;99.90;;;;;;4861645;29;20122;-77
2023/01/06 02:14:21;;;;;;;2.10;1.75;;;10.70;99.90;;;;;;4866344;29;20040;-77
2023/01/06 02:17:05;;;;;;;2.30;1.55;;;10.70;99.90;;;;;;4865713;29;20089;-77
2023/01/06 02:19:47;;;;;;;2.50;1.73;;;10.70;99.90;;;;;;4852314;29;20037;-77
2023/01/06 02:22:31;;;;;;;1.15;0.98;;;10.70;99.90;;;;;;4865657;29;20053;-77
2023/01/06 02:25:21;;;;;;;1.92;1.67;;;10.70;99.90;;;;;;4865595;29;20062;-77
2023/01/06 02:27:53;;;;;;;3.80;1.65;;;10.70;99.90;;;;;;4882036;29;20025;-77
2023/01/06 02:30:23;;;;;;;3.95;1.20;;;10.70;99.90;;;;;;4865711;29;20097;-76
2023/01/06 02:33:02;;;;;;;1.08;0.80;;;10.80;99.90;;;;;;4864049;29;20102;-76
2023/01/06 02:35:46;;;;;;;1.40;1.00;;;10.70;99.90;;;;;;4865533;29;20025;-76
2023/01/06 02:38:19;;;;;;;1.30;1.20;;;10.80;99.90;;;;;;4862830;29;20034;-76
2023/01/06 02:41:12;;;;;;;4.63;0.88;;;10.70;99.90;;;;;;4862281;29;20180;-78
2023/01/06 02:43:56;;;;;;;2.38;1.98;;;10.80;99.90;;;;;;4853901;29;20523;-77
2023/01/06 02:47:00;;;;;;;1.55;0.80;;;10.80;99.90;;;;;;4851995;29;20037;-77
2023/01/06 02:49:57;;;;;;;1.80;0.57;;;10.80;99.90;;;;;;4847781;29;20026;-78
2023/01/06 02:52:35;;;;;;;1.00;1.00;;;10.80;99.90;;;;;;4867720;29;20029;-77
2023/01/06 02:55:06;;;;;;;2.25;1.33;;;10.80;99.90;;;;;;4849890;29;20037;-77
2023/01/06 02:57:43;;;;;;;1.55;1.42;;;10.80;99.90;;;;;;4861528;29;20035;-77
2023/01/06 03:00:12;;;;;;;1.55;1.17;;;10.80;99.90;;;;;;4860390;29;20071;-77
2023/01/06 03:02:41;;;;;;;1.83;1.23;;;10.80;99.90;;;;;;4860650;29;20124;-78
2023/01/06 03:05:11;;;;;;;5.13;2.33;;;10.90;99.90;;;;;;4843849;29;20045;-78
2023/01/06 03:07:39;;;;;;;1.55;0.88;;;10.80;99.90;;;;;;4829313;29;20049;-77
2023/01/06 03:10:07;;;;;;;1.42;1.20;;;10.80;99.90;;;;;;4840497;29;20034;-77
2023/01/06 03:13:01;;;;;;;1.48;1.38;;;10.80;99.90;;;;;;4862304;29;20032;-77
2023/01/06 03:15:28;;;;;;;3.03;0.90;;;10.80;99.90;;;;;;4810787;29;20042;-78
2023/01/06 03:17:54;;;;;;;4.28;1.20;;;10.90;99.90;;;;;;4845837;29;20507;-78
2023/01/06 03:20:20;;;;;;;1.25;0.88;;;10.80;99.90;;;;;;4845032;29;20048;-77
2023/01/06 03:22:46;;;;;;;1.75;0.82;;;10.80;99.90;;;;;;4847223;29;20128;-78
2023/01/06 03:25:13;;;;;;;1.52;1.42;;;10.80;99.90;;;;;;4845943;29;20038;-77
2023/01/06 03:27:40;;;;;;;0.95;0.85;;;10.90;99.90;;;;;;4831079;29;20034;-77
2023/01/06 03:30:10;;;;;;;3.10;1.48;;;10.80;99.90;;;;;;4830653;29;20034;-78
2023/01/06 03:32:43;;;;;;;1.85;1.05;;;10.90;99.90;;;;;;4846478;29;20030;-77
2023/01/06 03:35:30;;;;;;;3.20;1.33;;;10.90;99.90;;;;;;4832296;29;20026;-77
2023/01/06 03:38:08;;;;;;;1.25;0.95;;;10.90;99.90;;;;;;4831860;29;20029;-78
2023/01/06 03:40:52;;;;;;;1.02;0.73;;;10.90;99.90;;;;;;4864299;29;20464;-77
2023/01/06 03:43:46;;;;;;;0.43;0.43;;;10.90;99.90;;;;;;4863845;29;20132;-77
2023/01/06 03:46:20;;;;;;;1.52;0.65;;;10.90;99.90;;;;;;4850463;29;20041;-77
2023/01/06 03:49:04;;;;;;;1.90;1.33;;;10.90;99.90;;;;;;4864615;29;20021;-77
2023/01/06 03:51:49;;;;;;;5.22;1.50;;;10.90;99.90;;;;;;4850571;29;20462;-78
2023/01/06 03:54:35;;;;;;;3.03;1.08;;;10.90;99.90;;;;;;4867338;29;20033;-78
2023/01/06 03:57:17;;;;;;;2.35;1.05;;;10.90;99.90;;;;;;4847670;29;20037;-78
2023/01/06 04:00:10;;;;;;;6.60;2.40;;;10.90;99.90;;;;;;4847396;29;20134;-77
2023/01/06 04:02:39;;;;;;;6.22;1.67;;;10.80;99.90;;;;;;4880388;29;20041;-77
2023/01/06 04:05:13;;;;;;;0.70;0.70;;;10.80;99.90;;;;;;4863711;29;20105;-78
2023/01/06 04:07:43;;;;;;;1.85;0.90;;;10.80;99.90;;;;;;4863511;29;20017;-77
2023/01/06 04:10:10;;;;;;;6.35;1.30;;;10.80;99.90;;;;;;4850579;29;20029;-78
2023/01/06 04:12:39;;;;;;;2.05;0.80;;;10.80;99.90;;;;;;4849213;29;20033;-77
2023/01/06 04:15:10;;;;;;;2.92;0.98;;;10.80;99.90;;;;;;4849434;29;20029;-77
2023/01/06 04:17:38;;;;;;;2.63;0.67;;;10.80;99.90;;;;;;4849751;29;20040;-77
2023/01/06 04:20:07;;;;;;;1.20;1.10;;;10.80;99.90;;;;;;4849053;29;20034;-77
2023/01/06 04:22:33;;;;;;;1.50;0.90;;;10.80;99.90;;;;;;4864463;29;20053;-77
2023/01/06 04:24:59;;;;;;;1.70;1.38;;;10.80;99.90;;;;;;4831073;29;20038;-77
2023/01/06 04:27:26;;;;;;;1.40;1.30;;;10.80;99.90;;;;;;4831942;29;20009;-76
2023/01/06 04:29:52;;;;;;;1.02;0.68;;;10.70;99.90;;;;;;4829269;29;20113;-77
2023/01/06 04:32:18;;;;;;;2.72;1.17;;;10.70;99.90;;;;;;4844925;29;20070;-77
2023/01/06 04:34:44;;;;;;;5.10;1.45;;;10.70;99.90;;;;;;4813852;29;20022;-77
2023/01/06 04:37:12;;;;;;;0.60;0.60;;;10.70;99.90;;;;;;4828520;29;20050;-77
2023/01/06 04:39:38;;;;;;;1.65;1.55;;;10.70;99.90;;;;;;4828834;29;20041;-77
2023/01/06 04:42:04;;;;;;;2.15;1.27;;;10.70;99.90;;;;;;4844111;29;20065;-77
2023/01/06 04:44:30;;;;;;;1.02;0.75;;;10.70;99.90;;;;;;4829411;29;20063;-77
2023/01/06 04:46:56;;;;;;;0.90;0.90;;;10.70;99.90;;;;;;4830252;29;20097;-77
2023/01/06 04:49:21;;;;;;;2.67;1.20;;;10.70;99.90;;;;;;4860103;29;20030;-77
2023/01/06 04:51:47;;;;;;;1.23;0.90;;;10.70;99.90;;;;;;4829951;29;20042;-76
2023/01/06 04:54:13;;;;;;;1.90;0.95;;;10.60;99.90;;;;;;4846422;29;20083;-77
2023/01/06 04:56:39;;;;;;;1.65;1.52;;;10.60;99.90;;;;;;4845506;29;20040;-76
2023/01/06 04:59:05;;;;;;;2.67;1.02;;;10.60;99.90;;;;;;4860812;29;20097;-77
2023/01/06 05:01:31;;;;;;;2.22;1.25;;;10.60;99.90;;;;;;4867182;29;20041;-77
2023/01/06 05:03:56;;;;;;;7.30;1.60;;;10.60;99.90;;;;;;4867300;29;20030;-76
2023/01/06 05:06:23;;;;;;;0.80;0.80;;;10.60;99.90;;;;;;4850411;29;20065;-76
2023/01/06 05:08:49;;;;;;;0.93;0.93;;;10.60;99.90;;;;;;4866547;29;20121;-77
2023/01/06 05:11:22;;;;;;;0.98;0.98;;;10.60;99.90;;;;;;4847921;29;20408;-76
2023/01/06 05:13:48;;;;;;;5.68;1.50;;;10.60;99.90;;;;;;4848002;29;20058;-76
2023/01/06 05:16:22;;;;;;;0.70;0.70;;;10.60;99.90;;;;;;4832955;29;20026;-76
2023/01/06 05:18:48;;;;;;;0.63;0.60;;;10.60;99.90;;;;;;4847538;29;20049;-76
2023/01/06 05:21:14;;;;;;;1.10;1.02;;;10.60;99.90;;;;;;4863245;29;20038;-76
2023/01/06 05:23:41;;;;;;;1.25;0.93;;;10.60;99.90;;;;;;4847726;29;20097;-76
2023/01/06 05:26:08;;;;;;;1.30;0.77;;;10.60;99.90;;;;;;4833810;29;20038;-77
2023/01/06 05:28:34;;;;;;;2.97;1.25;;;10.60;99.90;;;;;;4846710;29;20081;-76
2023/01/06 05:31:01;;;;;;;5.45;3.20;;;10.60;99.90;;;;;;4846228;29;20030;-76
2023/01/06 05:33:27;;;;;;;2.70;2.03;;;10.50;99.90;;;;;;4832694;29;20040;-77
2023/01/06 05:36:04;;;;;;;3.75;1.65;;;10.50;99.90;;;;;;4831723;29;20034;-76
2023/01/06 05:38:30;;;;;;;2.67;1.10;;;10.50;99.90;;;;;;4845361;29;20038;-77
2023/01/06 05:40:56;;;;;;;0.63;0.63;;;10.50;99.90;;;;;;4865731;29;20062;-77
2023/01/06 05:43:22;;;;;;;0.70;0.70;;;10.40;99.90;;;;;;4842760;29;20045;-77
2023/01/06 05:45:48;;;;;;;2.17;2.08;;;10.50;99.90;;;;;;4848304;29;20063;-77
2023/01/06 05:48:15;;;;;;;2.03;1.13;;;10.50;99.90;;;;;;4843652;29;20449;-77
2023/01/06 05:50:40;;;;;;;1.52;1.00;;;10.40;99.90;;;;;;4837363;29;20059;-77
2023/01/06 05:53:07;;;;;;;1.00;0.98;;;10.50;99.90;;;;;;4881438;29;20029;-77
2023/01/06 05:55:33;;;;;;;1.60;1.25;;;10.50;99.90;;;;;;4863013;29;20030;-77
2023/01/06 05:57:59;;;;;;;4.10;1.13;;;10.50;99.90;;;;;;4842307;29;20051;-77
2023/01/06 06:00:25;;;;;;;1.77;0.95;;;10.50;99.90;;;;;;4837228;29;20041;-77
2023/01/06 06:02:51;;;;;;;1.77;0.82;;;10.60;99.90;;;;;;4847575;29;20101;-77
2023/01/06 06:05:17;;;;;;;4.35;1.48;;;10.60;99.90;;;;;;4837193;29;20041;-77
2023/01/06 06:07:43;;;;;;;0.95;0.80;;;10.60;99.90;;;;;;4863688;29;20038;-77
2023/01/06 06:10:09;;;;;;;1.20;1.20;;;10.60;99.90;;;;;;4864249;29;20030;-77
2023/01/06 06:12:35;;;;;;;0.95;0.73;;;10.60;99.90;;;;;;4851557;29;20013;-77
2023/01/06 06:15:01;;;;;;;0.98;0.90;;;10.60;99.90;;;;;;4846067;29;20044;-77
2023/01/06 06:17:27;;;;;;;4.72;1.00;;;10.60;99.90;;;;;;4855659;29;20022;-77
2023/01/06 06:19:53;;;;;;;1.30;1.10;;;10.70;99.90;;;;;;4856917;29;20372;-77
2023/01/06 06:22:19;;;;;;;1.20;0.98;;;10.70;99.90;;;;;;4809262;29;20105;-77
2023/01/06 06:24:45;;;;;;;2.50;1.90;;;10.70;99.90;;;;;;4831634;29;20038;-77
2023/01/06 06:27:11;;;;;;;0.65;0.65;;;10.70;99.90;;;;;;4834491;29;20117;-77
2023/01/06 06:29:36;;;;;;;1.23;1.02;;;10.60;99.90;;;;;;4875398;29;20045;-77
2023/01/06 06:32:02;;;;;;;3.20;0.90;;;10.70;99.90;;;;;;4846980;29;20029;-77
2023/01/06 06:34:28;;;;;;;2.58;1.65;;;10.60;99.90;;;;;;4830423;29;20093;-77
2023/01/06 06:36:55;;;;;;;0.60;0.50;;;10.60;99.90;;;;;;4846952;29;20109;-77
2023/01/06 06:39:20;;;;;;;1.60;0.75;;;10.70;99.90;;;;;;4846854;29;20037;-77
2023/01/06 06:41:46;;;;;;;2.08;1.10;;;10.70;99.90;;;;;;4840736;29;20026;-77
2023/01/06 06:44:12;;;;;;;3.05;2.75;;;10.70;99.90;;;;;;4836962;29;20030;-77
2023/01/06 06:46:38;;;;;;;5.43;2.30;;;10.70;99.90;;;;;;4837737;29;20453;-77
2023/01/06 06:49:04;;;;;;;7.38;6.68;;;10.70;99.90;;;;;;4836936;29;20029;-78
2023/01/06 06:51:30;;;;;;;5.13;3.65;;;10.70;99.90;;;;;;4844423;29;20070;-77
2023/01/06 06:53:56;;;;;;;2.63;2.45;;;10.70;99.90;;;;;;4844444;29;20025;-77
2023/01/06 06:56:22;;;;;;;1.13;0.73;;;10.70;99.90;;;;;;4839824;29;20029;-77
2023/01/06 06:58:48;;;;;;;3.47;1.13;;;10.70;99.90;;;;;;4820296;29;20120;-77
2023/01/06 07:01:17;;;;;;;0.90;0.90;;;10.70;99.90;;;;;;4845329;29;20037;-77
2023/01/06 07:03:43;;;;;;;0.85;0.85;;;10.80;99.90;;;;;;4845427;29;20026;-77
2023/01/06 07:06:12;;;;;;;2.33;1.55;;;10.70;99.90;;;;;;4842882;29;20140;-77
2023/01/06 07:08:41;;;;;;;1.00;0.55;;;10.80;99.90;;;;;;4843705;29;20030;-77
2023/01/06 07:11:06;;;;;;;2.95;1.88;;;10.80;99.90;;;;;;4843282;29;20026;-77
2023/01/06 07:13:32;;;;;;;0.80;0.80;;;10.70;99.90;;;;;;4816316;29;20041;-77
2023/01/06 07:15:59;;;;;;;1.20;1.10;;;10.70;99.90;;;;;;4842434;29;20132;-77
2023/01/06 07:18:25;;;;;;;0.85;0.85;;;10.60;99.90;;;;;;4841427;29;20579;-77
2023/01/06 07:20:54;;;;;;;0.98;0.98;;;10.60;99.90;;;;;;4835535;29;20042;-77
2023/01/06 07:23:22;;;;;;;1.55;1.50;;;10.60;99.90;;;;;;4858210;29;20057;-77
2023/01/06 07:25:55;;;;;;;1.77;1.20;;;10.60;99.90;;;;;;4853318;29;20049;-77
2023/01/06 07:28:22;;;;;;;2.20;1.55;;;10.50;99.90;;;;;;4841474;29;20048;-77
2023/01/06 07:30:48;;;;;;;2.78;0.98;;;10.50;99.90;;;;;;4832101;29;20034;-77
2023/01/06 07:33:14;;;;;;;2.20;1.75;;;10.50;99.90;;;;;;4839992;29;20037;-77
2023/01/06 07:35:40;;;;;;;1.65;0.70;;;10.50;99.90;;;;;;4860706;29;20093;-77
2023/01/06 07:38:07;;;;;;;0.70;0.70;;;10.50;99.90;;;;;;4829557;29;20511;-77
2023/01/06 07:40:34;;;;;;;2.95;1.30;;;10.50;99.90;;;;;;4827938;29;20030;-77
2023/01/06 07:43:05;;;;;;;1.75;1.65;;;10.50;99.90;;;;;;4858274;29;20025;-77
2023/01/06 07:45:31;;;;;;;5.55;0.77;;;10.50;99.90;;;;;;4845041;29;20407;-77
2023/01/06 07:47:57;;;;;;;3.40;1.77;;;10.50;99.90;;;;;;4840194;29;20034;-77
2023/01/06 07:50:23;;;;;;;2.85;0.93;;;10.40;99.90;;;;;;4825996;29;20048;-77
2023/01/06 07:52:49;;;;;;;2.08;1.50;;;10.50;99.90;;;;;;4860505;29;20026;-77
2023/01/06 07:55:16;;;;;;;1.10;1.10;;;10.40;99.90;;;;;;4861731;29;20097;-77
2023/01/06 07:57:42;;;;;;;3.80;3.50;;;10.40;99.90;;;;;;4844394;29;20744;-77
2023/01/06 08:00:08;;;;;;;12.50;11.27;;;10.40;99.90;;;;;;4848636;29;20041;-76
2023/01/06 08:02:37;;;;;;;11.55;9.00;;;10.30;99.90;;;;;;4843558;29;20081;-77
2023/01/06 08:05:03;;;;;;;2.88;2.58;;;10.30;99.90;;;;;;4846408;29;20017;-77
2023/01/06 08:07:29;;;;;;;7.55;6.82;;;10.30;99.90;;;;;;4848829;29;20022;-77
2023/01/06 08:09:55;;;;;;;3.85;3.35;;;10.30;99.90;;;;;;4857402;29;20484;-76
2023/01/06 08:12:21;;;;;;;1.73;1.63;;;10.30;99.90;;;;;;4840472;29;20115;-76
2023/01/06 08:14:47;;;;;;;5.75;1.98;;;10.20;99.90;;;;;;4864658;29;20403;-77
2023/01/06 08:17:13;;;;;;;3.42;3.13;;;10.30;99.90;;;;;;4848612;29;20034;-77
2023/01/06 08:19:39;;;;;;;2.65;2.45;;;10.20;99.90;;;;;;4863480;29;20056;-78
2023/01/06 08:22:05;;;;;;;7.18;6.35;;;10.30;99.90;;;;;;4877027;29;20040;-77
2023/01/06 08:24:31;;;;;;;2.75;2.40;;;10.20;99.90;;;;;;4843513;29;20042;-77
2023/01/06 08:26:57;;;;;;;4.78;2.72;;;10.30;99.90;;;;;;4855007;29;20040;-77
2023/01/06 08:29:27;;;;;;;3.05;2.17;;;10.20;99.90;;;;;;4837132;29;20038;-77
2023/01/06 08:31:53;;;;;;;1.52;1.42;;;10.20;99.90;;;;;;4863336;29;20077;-77
2023/01/06 08:34:19;;;;;;;2.58;1.75;;;10.20;99.90;;;;;;4849498;29;20057;-77
2023/01/06 08:36:45;;;;;;;1.55;1.45;;;10.20;99.90;;;;;;4841848;29;20033;-77
2023/01/06 08:39:12;;;;;;;1.27;1.17;;;10.30;99.90;;;;;;4835213;29;20064;-77
2023/01/06 08:41:39;;;;;;;1.65;1.52;;;10.30;99.90;;;;;;4853765;29;20021;-77
2023/01/06 08:44:06;;;;;;;2.22;1.45;;;10.30;99.90;;;;;;4836797;29;20030;-78
2023/01/06 08:46:32;;;;;;;3.55;1.23;;;10.40;99.90;;;;;;4849307;29;20050;-78
2023/01/06 08:48:59;;;;;;;1.60;1.33;;;10.30;99.90;;;;;;4850997;29;20053;-78
2023/01/06 08:51:27;;;;;;;1.60;1.50;;;10.30;99.90;;;;;;4845947;29;20118;-77
2023/01/06 08:53:54;;;;;;;0.93;0.85;;;10.30;99.90;;;;;;4849181;29;20033;-77
2023/01/06 08:56:28;;;;;;;2.05;1.33;;;10.30;99.90;;;;;;4870285;29;20093;-78
2023/01/06 08:59:00;;;;;;;2.15;1.70;;;10.30;99.90;;;;;;4866121;29;20043;-77
2023/01/06 09:01:29;;;;;;;2.10;1.55;;;10.30;99.90;;;;;;4846583;29;20030;-78
2023/01/06 09:03:57;;;;;;;1.77;1.58;;;10.40;99.90;;;;;;4831256;29;20110;-78
2023/01/06 09:06:23;;;;;;;0.93;0.93;;;10.40;99.90;;;;;;4849071;29;20502;-77
2023/01/06 09:08:49;;;;;;;1.65;1.52;;;10.60;99.90;;;;;;4838929;29;20038;-78
2023/01/06 09:11:16;;;;;;;3.25;1.73;;;10.50;99.90;;;;;;4836033;29;20018;-77
2023/01/06 09:13:42;;;;;;;1.10;1.00;;;10.60;99.90;;;;;;4871582;29;20083;-77
2023/01/06 09:16:10;;;;;;;1.30;1.20;;;10.60;99.90;;;;;;4848450;29;20037;-77
2023/01/06 09:18:37;;;;;;;1.92;1.67;;;10.70;99.90;;;;;;4841860;29;20034;-77
2023/01/06 09:21:03;;;;;;;1.10;1.10;;;10.70;99.90;;;;;;4831252;29;20038;-77
2023/01/06 09:23:30;;;;;;;4.65;4.35;;;10.70;99.90;;;;;;4849896;29;20033;-77
2023/01/06 09:25:56;;;;;;;10.88;9.77;;;10.80;99.90;;;;;;4847283;29;20083;-77
2023/01/06 09:28:23;;;;;;;1.70;1.58;;;10.80;99.90;;;;;;4822581;29;20042;-77
2023/01/06 09:30:49;;;;;;;5.53;3.05;;;10.80;99.90;;;;;;4858351;29;20037;-77
2023/01/06 09:33:16;;;;;;;4.38;3.97;;;10.90;99.90;;;;;;4842657;29;20030;-77
2023/01/06 09:35:45;;;;;;;2.45;2.25;;;11.00;99.90;;;;;;4849243;29;20449;-78
2023/01/06 09:38:12;;;;;;;2.08;1.98;;;11.00;99.90;;;;;;4834645;29;20030;-77
2023/01/06 09:41:00;;;;;;;7.18;6.47;;;11.10;99.90;;;;;;4831040;29;20058;-77
2023/01/06 09:43:34;;;;;;;2.45;2.25;;;11.10;99.90;;;;;;4858583;29;20503;-78
2023/01/06 09:46:06;;;;;;;4.93;4.45;;;11.60;99.90;;;;;;4847785;29;20044;-78
2023/01/06 09:48:43;;;;;;;3.35;3.00;;;11.30;99.90;;;;;;4849447;29;20060;-79
2023/01/06 09:51:17;;;;;;;2.58;2.38;;;11.20;99.90;;;;;;4863899;29;20026;-77
2023/01/06 09:53:48;;;;;;;5.07;4.57;;;11.20;99.90;;;;;;4872136;29;20026;-79
2023/01/06 09:56:16;;;;;;;3.72;2.15;;;11.20;99.90;;;;;;4888542;29;20048;-79
2023/01/06 09:58:57;;;;;;;3.58;3.08;;;11.20;99.90;;;;;;4856714;29;20125;-78
2023/01/06 10:01:29;;;;;;;2.03;1.92;;;11.20;99.90;;;;;;4871906;29;20026;-78
2023/01/06 10:03:56;;;;;;;2.00;1.80;;;11.40;99.90;;;;;;4888339;29;20029;-78
2023/01/06 10:06:40;;;;;;;1.48;1.42;;;11.70;99.90;;;;;;4887127;29;20060;-78
2023/01/06 10:09:21;;;;;;;1.73;1.63;;;12.20;99.90;;;;;;4883732;29;20030;-78
2023/01/06 10:12:25;;;;;;;3.80;1.50;;;11.80;99.90;;;;;;4868362;29;20040;-76
2023/01/06 10:15:05;;;;;;;2.58;1.70;;;11.90;99.90;;;;;;4867875;29;20022;-78
2023/01/06 10:17:53;;;;;;;1.50;1.40;;;12.30;99.90;;;;;;4869005;29;20058;-79
2023/01/06 10:20:31;;;;;;;1.10;0.98;;;12.70;99.90;;;;;;4866710;29;20503;-78
2023/01/06 10:23:29;;;;;;;1.50;1.38;;;12.50;99.90;;;;;;4886093;29;20024;-79
2023/01/06 10:26:12;;;;;;;6.57;5.53;;;12.70;99.90;;;;;;4862022;29;20050;-79
2023/01/06 10:28:42;;;;;;;2.38;1.00;;;13.00;99.90;;;;;;4866370;29;20063;-77
2023/01/06 10:31:16;;;;;;;7.63;1.77;;;12.60;99.90;;;;;;4865634;29;20089;-78
2023/01/06 10:33:51;;;;;;;2.17;2.05;;;12.50;99.90;;;;;;4842371;29;20061;-79
2023/01/06 10:36:31;;;;;;;5.70;3.00;;;12.50;99.90;;;;;;4839724;29;20039;-79
2023/01/06 10:38:59;;;;;;;2.83;1.30;;;12.80;99.90;;;;;;4869981;29;20029;-78
2023/01/06 10:41:31;;;;;;;1.83;1.73;;;13.80;99.90;;;;;;4874035;29;20390;-79
2023/01/06 10:43:57;;;;;;;2.58;2.47;;;14.00;99.90;;;;;;4860791;29;20042;-79
2023/01/06 10:46:34;;;;;;;9.18;1.52;;;13.80;99.90;;;;;;4844517;29;20071;-79
2023/01/06 10:49:02;;;;;;;2.35;1.52;;;13.60;99.90;;;;;;4867552;29;20049;-79
2023/01/06 10:51:37;;;;;;;1.58;1.55;;;13.40;99.90;;;;;;4856573;29;20092;-79
2023/01/06 10:54:12;;;;;;;4.53;1.55;;;13.40;99.90;;;;;;4844173;29;20054;-79
2023/01/06 10:56:44;;;;;;;2.33;2.13;;;13.10;99.90;;;;;;4853992;29;20127;-78
2023/01/06 10:59:11;;;;;;;2.55;1.30;;;13.00;99.90;;;;;;4884001;29;20014;-78
2023/01/06 11:01:49;;;;;;;5.03;4.22;;;12.80;99.90;;;;;;4868354;29;20025;-78
2023/01/06 11:04:16;;;;;;;6.68;3.97;;;12.70;99.90;;;;;;4868395;29;20044;-78
2023/01/06 11:06:59;;;;;;;2.22;2.10;;;12.50;99.90;;;;;;4868180;29;20112;-78
2023/01/06 11:09:31;;;;;;;1.90;1.75;;;12.40;99.90;;;;;;4884080;29;20029;-78
2023/01/06 11:12:00;;;;;;;6.07;1.20;;;12.40;99.90;;;;;;4884199;29;20025;-78
2023/01/06 11:14:30;;;;;;;1.13;1.00;;;12.60;99.90;;;;;;4868119;29;20049;-78
2023/01/06 11:17:09;;;;;;;2.33;1.05;;;12.80;99.90;;;;;;4884400;29;20033;-78
2023/01/06 11:19:44;;;;;;;5.20;0.80;;;12.80;99.90;;;;;;4852619;29;20033;-78
2023/01/06 11:22:36;;;;;;;1.17;1.08;;;12.80;99.90;;;;;;4866489;29;20044;-78
2023/01/06 11:25:20;;;;;;;2.58;1.13;;;12.70;99.90;;;;;;4871942;29;20041;-78
2023/01/06 11:28:14;;;;;;;5.57;1.95;;;12.70;99.90;;;;;;4875673;29;20037;-78
2023/01/06 11:31:03;;;;;;;3.33;0.60;;;12.80;99.90;;;;;;4874511;29;20006;-78
2023/01/06 11:33:31;;;;;;;2.20;1.10;;;12.70;99.90;;;;;;4875004;29;20058;-78
2023/01/06 11:36:04;;;;;;;0.82;0.77;;;12.70;99.90;;;;;;4883455;29;20062;-78
2023/01/06 11:38:30;;;;;;;1.88;1.00;;;12.60;99.90;;;;;;4865547;29;20053;-79
2023/01/06 11:40:56;;;;;;;1.15;0.75;;;12.50;99.90;;;;;;4873698;29;20033;-78
2023/01/06 11:43:32;;;;;;;3.28;0.95;;;12.50;99.90;;;;;;4865440;29;20057;-79
2023/01/06 11:46:05;;;;;;;1.67;1.42;;;12.50;99.90;;;;;;4858153;29;20504;-77
2023/01/06 11:48:33;;;;;;;3.70;1.30;;;12.50;99.90;;;;;;4861015;29;20061;-78
2023/01/06 11:51:02;;;;;;;2.40;1.88;;;12.40;99.90;;;;;;4859585;29;20061;-78
2023/01/06 11:53:29;;;;;;;0.90;0.90;;;12.40;99.90;;;;;;4844982;29;20034;-78
2023/01/06 11:56:02;;;;;;;2.97;2.33;;;12.30;99.90;;;;;;4875680;29;20030;-78
2023/01/06 11:58:54;;;;;;;6.22;2.40;;;12.40;99.90;;;;;;4879257;29;20090;-78
2023/01/06 12:01:43;;;;;;;0.85;0.85;;;12.40;99.90;;;;;;4863518;29;20033;-78
2023/01/06 12:04:21;;;;;;;2.97;1.20;;;12.40;99.90;;;;;;4849893;29;20033;-78
2023/01/06 12:06:51;;;;;;;1.20;1.10;;;12.40;99.90;;;;;;4881665;29;20040;-78
2023/01/06 12:09:28;;;;;;;1.40;1.15;;;12.50;99.90;;;;;;4884366;29;20025;-78
2023/01/06 12:12:02;;;;;;;2.15;1.25;;;12.40;99.90;;;;;;4880721;29;20031;-78
2023/01/06 12:14:34;;;;;;;1.80;1.67;;;12.40;99.90;;;;;;4849230;29;20046;-78
2023/01/06 12:17:10;;;;;;;4.70;1.55;;;12.50;99.90;;;;;;4865111;29;20033;-78
2023/01/06 12:19:43;;;;;;;1.00;1.00;;;12.60;99.90;;;;;;4833341;29;20062;-78
2023/01/06 12:22:30;;;;;;;5.53;1.90;;;12.60;99.90;;;;;;4864493;29;20022;-78
2023/01/06 12:24:58;;;;;;;0.63;0.63;;;12.50;99.90;;;;;;4866260;29;20059;-78
2023/01/06 12:27:31;;;;;;;1.08;0.98;;;12.50;99.90;;;;;;4857893;29;20475;-78
2023/01/06 12:30:01;;;;;;;0.90;0.88;;;12.40;99.90;;;;;;4876116;29;20029;-78
2023/01/06 12:32:32;;;;;;;4.18;1.58;;;12.40;99.90;;;;;;4879787;29;20097;-78
2023/01/06 12:35:00;;;;;;;2.85;1.48;;;12.40;99.90;;;;;;4879591;29;20034;-78
2023/01/06 12:37:40;;;;;;;3.03;1.58;;;12.40;99.90;;;;;;4868365;29;20055;-78
2023/01/06 12:40:15;;;;;;;1.17;1.08;;;12.50;99.90;;;;;;4861466;29;20022;-78
2023/01/06 12:42:54;;;;;;;3.55;1.00;;;12.40;99.90;;;;;;4840484;29;20044;-78
2023/01/06 12:46:08;;;;;;;1.90;1.00;;;12.40;99.90;;;;;;4883320;29;20479;-78
2023/01/06 12:48:34;;;;;;;1.77;1.02;;;12.40;99.90;;;;;;4860522;29;20025;-78
2023/01/06 12:51:26;;;;;;;1.05;1.05;;;12.30;99.90;;;;;;4867194;29;20050;-78
2023/01/06 12:54:12;;;;;;;0.93;0.77;;;12.10;99.90;;;;;;4882584;29;20097;-78
2023/01/06 12:56:56;;;;;;;1.08;0.98;;;11.90;99.90;;;;;;4869336;29;20030;-78
2023/01/06 12:59:31;;;;;;;0.90;0.88;;;11.80;99.90;;;;;;4866735;29;20037;-78
2023/01/06 13:01:57;;;;;;;1.73;0.60;;;11.80;99.90;;;;;;4882433;29;20040;-78
2023/01/06 13:04:48;;;;;;;3.22;2.67;;;11.80;99.90;;;;;;4850096;29;20096;-78
2023/01/06 13:07:32;;;;;;;17.52;10.48;;;11.80;99.90;;;;;;4832343;29;20091;-78